createdAt,value
2022-09-09T00:00:43.729Z,48.02
2022-09-09T00:01:43.734Z,50.92
2022-09-09T00:02:43.814Z,46.08
2022-09-09T00:03:43.776Z,50.27
2022-09-09T00:04:43.706Z,51.08
2022-09-09T00:05:43.689Z,46.73
2022-09-09T00:06:43.692Z,46.41
2022-09-09T00:07:43.695Z,43.18
2022-09-09T00:09:03.448Z,46.73
2022-09-09T00:09:43.658Z,48.02
2022-09-09T00:10:43.643Z,45.76
2022-09-09T00:11:43.670Z,50.76
2022-09-09T00:12:43.839Z,47.37
2022-09-09T00:13:43.844Z,46.25
2022-09-09T00:14:43.851Z,50.60
2022-09-09T00:15:43.908Z,48.02
2022-09-09T00:16:44.740Z,49.47
2022-09-09T00:17:43.873Z,50.27
2022-09-09T00:18:43.733Z,50.60
2022-09-09T00:19:43.789Z,47.37
2022-09-09T00:20:43.790Z,39.96
2022-09-09T00:21:44.821Z,39.64
2022-09-09T00:22:43.579Z,40.93
2022-09-09T00:23:44.539Z,45.76
2022-09-09T00:24:43.531Z,43.83
2022-09-09T00:25:43.530Z,40.93
2022-09-09T00:26:43.518Z,39.16
2022-09-09T00:27:43.555Z,38.19
2022-09-09T00:28:43.494Z,41.73
2022-09-09T00:29:46.414Z,42.06
2022-09-09T00:30:43.549Z,40.77
2022-09-09T00:31:43.466Z,43.34
2022-09-09T00:32:43.495Z,43.83
2022-09-09T00:33:43.460Z,45.92
2022-09-09T00:34:43.445Z,44.47
2022-09-09T00:35:43.439Z,38.35
2022-09-09T00:36:43.445Z,45.28
2022-09-09T00:37:44.456Z,36.90
2022-09-09T00:38:43.434Z,39.16
2022-09-09T00:39:43.479Z,41.89
2022-09-09T00:40:43.389Z,37.06
2022-09-09T00:41:43.391Z,44.15
2022-09-09T00:42:43.417Z,37.71
2022-09-09T00:43:43.410Z,40.28
2022-09-09T00:47:28.451Z,47.53
2022-09-09T00:48:28.540Z,38.99
2022-09-09T00:49:28.433Z,41.89
2022-09-09T00:50:29.568Z,51.88
2022-09-09T00:51:29.568Z,57.52
2022-09-09T00:52:29.556Z,52.53
2022-09-09T00:53:29.581Z,60.10
2022-09-09T00:54:29.547Z,53.82
2022-09-09T00:55:29.529Z,53.66
2022-09-09T00:56:29.535Z,54.62
2022-09-09T00:57:29.516Z,55.59
2022-09-09T00:58:29.624Z,54.46
2022-09-09T00:59:29.504Z,52.85
2022-09-09T01:00:29.559Z,52.21
2022-09-09T01:01:29.575Z,51.88
2022-09-09T01:02:29.541Z,52.53
2022-09-09T01:03:29.492Z,52.85
2022-09-09T01:04:29.457Z,52.21
2022-09-09T01:05:29.445Z,52.85
2022-09-09T01:06:29.435Z,52.85
2022-09-09T01:07:29.435Z,54.62
2022-09-09T01:08:29.530Z,53.33
2022-09-09T01:09:29.419Z,53.33
2022-09-09T01:10:29.407Z,54.14
2022-09-09T01:11:29.404Z,52.69
2022-09-09T01:12:29.400Z,52.53
2022-09-09T01:13:29.442Z,52.37
2022-09-09T01:14:29.375Z,49.47
2022-09-09T01:15:29.366Z,53.50
2022-09-09T01:16:29.422Z,52.69
2022-09-09T01:17:29.351Z,48.66
2022-09-09T01:18:29.417Z,48.98
2022-09-09T01:19:29.337Z,53.01
2022-09-09T01:20:29.318Z,43.83
2022-09-09T01:21:29.346Z,50.92
2022-09-09T01:22:29.308Z,52.85
2022-09-09T01:23:29.334Z,46.89
2022-09-09T01:24:29.291Z,46.73
2022-09-09T01:25:29.278Z,44.96
2022-09-09T01:26:29.275Z,47.21
2022-09-09T01:27:29.261Z,51.40
2022-09-09T01:28:29.346Z,57.69
2022-09-09T01:29:29.247Z,54.30
2022-09-09T01:30:29.323Z,48.98
2022-09-09T01:31:29.230Z,43.02
2022-09-09T01:32:29.226Z,44.96
2022-09-09T01:33:29.214Z,40.28
2022-09-09T01:34:29.237Z,40.93
2022-09-09T01:35:29.200Z,44.79
2022-09-09T01:36:29.192Z,46.41
2022-09-09T01:37:29.188Z,49.95
2022-09-09T01:38:29.244Z,48.66
2022-09-09T01:39:29.200Z,47.70
2022-09-09T01:40:29.160Z,51.72
2022-09-09T01:41:29.154Z,42.70
2022-09-09T01:42:29.151Z,39.48
2022-09-09T01:43:29.135Z,41.25
2022-09-09T01:44:29.189Z,49.15
2022-09-09T01:45:29.120Z,46.73
2022-09-09T01:46:29.245Z,49.79
2022-09-09T01:47:29.121Z,59.94
2022-09-09T01:48:29.166Z,46.25
2022-09-09T01:49:29.117Z,40.44
2022-09-09T01:50:29.087Z,43.02
2022-09-09T01:51:29.073Z,54.79
2022-09-09T01:52:29.058Z,43.02
2022-09-09T01:53:29.051Z,49.31
2022-09-09T01:54:29.072Z,53.98
2022-09-09T01:55:29.039Z,51.72
2022-09-09T01:56:29.037Z,51.08
2022-09-09T01:57:29.035Z,51.56
2022-09-09T01:58:29.102Z,54.46
2022-09-09T01:59:29.038Z,51.40
2022-09-09T02:00:28.995Z,50.43
2022-09-09T02:01:29.023Z,48.66
2022-09-09T02:02:29.006Z,51.24
2022-09-09T02:03:28.978Z,50.60
2022-09-09T02:04:28.987Z,50.27
2022-09-09T02:05:28.952Z,51.08
2022-09-09T02:06:28.947Z,52.69
2022-09-09T02:07:28.936Z,50.11
2022-09-09T02:08:29.153Z,50.43
2022-09-09T02:09:28.923Z,57.04
2022-09-09T02:10:28.921Z,50.76
2022-09-09T02:11:28.920Z,49.79
2022-09-09T02:12:28.897Z,51.72
2022-09-09T02:13:28.937Z,51.56
2022-09-09T02:14:28.881Z,50.60
2022-09-09T02:15:28.869Z,51.08
2022-09-09T02:16:28.934Z,51.56
2022-09-09T02:17:28.856Z,50.43
2022-09-09T02:18:28.933Z,50.60
2022-09-09T02:19:28.876Z,49.79
2022-09-09T02:20:32.321Z,50.11
2022-09-09T02:21:29.827Z,49.95
2022-09-09T02:22:28.816Z,49.95
2022-09-09T02:23:28.865Z,50.60
2022-09-09T02:24:28.828Z,56.07
2022-09-09T02:25:28.790Z,45.28
2022-09-09T02:26:28.787Z,44.31
2022-09-09T02:27:28.779Z,49.79
2022-09-09T02:28:28.761Z,54.95
2022-09-09T02:29:29.809Z,47.21
2022-09-09T02:30:28.806Z,48.02
2022-09-09T02:31:28.745Z,45.44
2022-09-09T02:32:28.737Z,43.34
2022-09-09T02:33:28.724Z,44.15
2022-09-09T02:34:28.749Z,52.21
2022-09-09T02:35:28.726Z,50.11
2022-09-09T02:36:28.705Z,45.28
2022-09-09T02:37:28.691Z,48.82
2022-09-09T02:38:28.754Z,47.70
2022-09-09T02:39:28.708Z,52.53
2022-09-09T02:40:28.670Z,43.83
2022-09-09T02:41:28.668Z,47.53
2022-09-09T02:42:28.656Z,44.47
2022-09-09T02:43:28.644Z,42.86
2022-09-09T02:44:28.669Z,42.22
2022-09-09T02:45:28.744Z,51.24
2022-09-09T02:46:28.628Z,46.41
2022-09-09T02:47:28.627Z,45.60
2022-09-09T02:48:28.678Z,42.06
2022-09-09T02:49:28.635Z,46.73
2022-09-09T02:50:28.590Z,44.47
2022-09-09T02:51:28.585Z,41.25
2022-09-09T02:52:28.576Z,43.67
2022-09-09T02:53:28.568Z,46.57
2022-09-09T02:54:28.575Z,44.96
2022-09-09T02:55:28.580Z,48.50
2022-09-09T02:56:28.545Z,53.66
2022-09-09T02:57:28.536Z,48.66
2022-09-09T02:58:28.532Z,60.10
2022-09-09T02:59:28.541Z,52.05
2022-09-09T03:00:28.539Z,43.83
2022-09-09T03:01:28.564Z,50.60
2022-09-09T03:02:28.530Z,52.69
2022-09-09T03:03:28.492Z,42.38
2022-09-09T03:04:28.476Z,41.73
2022-09-09T03:05:28.510Z,53.82
2022-09-09T03:06:28.463Z,49.79
2022-09-09T03:07:28.472Z,54.14
2022-09-09T03:08:28.549Z,43.51
2022-09-09T03:09:28.446Z,53.33
2022-09-09T03:10:28.464Z,49.63
2022-09-09T03:11:28.424Z,54.95
2022-09-09T03:12:28.414Z,46.41
2022-09-09T03:13:28.415Z,55.91
2022-09-09T03:14:28.400Z,48.34
2022-09-09T03:15:28.445Z,49.63
2022-09-09T03:16:28.486Z,58.97
2022-09-09T03:17:28.374Z,50.43
2022-09-09T03:18:28.419Z,61.39
2022-09-09T03:19:28.359Z,59.14
2022-09-09T03:20:28.391Z,53.17
2022-09-09T03:21:43.003Z,47.53
2022-09-09T03:22:28.337Z,52.37
2022-09-09T03:23:28.330Z,50.60
2022-09-09T03:24:28.320Z,61.55
2022-09-09T03:25:28.350Z,57.20
2022-09-09T03:26:35.002Z,53.01
2022-09-09T03:27:28.293Z,46.57
2022-09-09T03:28:28.286Z,48.50
2022-09-09T03:29:28.278Z,59.78
2022-09-09T03:30:28.311Z,52.85
2022-09-09T03:31:28.276Z,57.36
2022-09-09T03:32:28.250Z,51.24
2022-09-09T03:33:28.249Z,51.56
2022-09-09T03:34:28.236Z,48.02
2022-09-09T03:35:28.264Z,65.42
2022-09-09T03:36:28.220Z,49.79
2022-09-09T03:37:28.217Z,50.60
2022-09-09T03:38:28.206Z,49.47
2022-09-09T03:39:28.198Z,57.69
2022-09-09T03:40:28.221Z,61.07
2022-09-09T03:41:28.199Z,54.30
2022-09-09T03:42:28.170Z,56.72
2022-09-09T03:43:28.163Z,52.53
2022-09-09T03:44:28.156Z,62.52
2022-09-09T03:45:28.218Z,55.59
2022-09-09T03:46:28.158Z,52.53
2022-09-09T03:47:28.137Z,54.14
2022-09-09T03:48:28.122Z,61.71
2022-09-09T03:49:28.116Z,51.40
2022-09-09T03:50:28.130Z,55.11
2022-09-09T03:51:28.095Z,59.30
2022-09-09T03:52:28.083Z,51.40
2022-09-09T03:53:28.076Z,55.59
2022-09-09T03:54:28.078Z,51.56
2022-09-09T03:55:28.088Z,49.47
2022-09-09T03:56:28.051Z,52.05
2022-09-09T03:57:28.041Z,58.65
2022-09-09T03:58:28.033Z,55.43
2022-09-09T03:59:28.024Z,53.33
2022-09-09T04:00:28.063Z,48.66
2022-09-09T04:01:28.090Z,50.27
2022-09-09T04:02:28.042Z,66.06
2022-09-09T04:03:28.575Z,53.50
2022-09-09T04:04:28.986Z,58.17
2022-09-09T04:05:28.006Z,56.88
2022-09-09T04:06:27.974Z,59.78
2022-09-09T04:07:27.961Z,53.98
2022-09-09T04:08:27.956Z,62.20
2022-09-09T04:09:27.947Z,64.45
2022-09-09T04:10:27.967Z,49.95
2022-09-09T04:11:27.936Z,53.50
2022-09-09T04:12:27.928Z,52.37
2022-09-09T04:13:27.911Z,57.85
2022-09-09T04:14:27.903Z,53.33
2022-09-09T04:15:27.922Z,55.59
2022-09-09T04:16:27.915Z,53.50
2022-09-09T04:17:27.892Z,65.58
2022-09-09T04:18:27.872Z,58.01
2022-09-09T04:19:27.861Z,58.17
2022-09-09T04:20:27.894Z,60.26
2022-09-09T04:21:27.860Z,54.95
2022-09-09T04:22:27.838Z,60.59
2022-09-09T04:23:27.826Z,55.75
2022-09-09T04:24:27.823Z,65.42
2022-09-09T04:25:27.838Z,56.72
2022-09-09T04:26:27.801Z,60.26
2022-09-09T04:27:27.800Z,60.10
2022-09-09T04:28:27.788Z,62.04
2022-09-09T04:29:27.777Z,57.52
2022-09-09T04:30:27.809Z,56.72
2022-09-09T04:31:27.901Z,53.98
2022-09-09T04:32:27.753Z,52.05
2022-09-09T04:33:27.742Z,62.52
2022-09-09T04:34:27.729Z,59.62
2022-09-09T04:35:27.763Z,66.71
2022-09-09T04:36:27.715Z,67.03
2022-09-09T04:37:27.712Z,67.68
2022-09-09T04:38:27.694Z,63.65
2022-09-09T04:39:27.697Z,52.21
2022-09-09T04:40:27.718Z,56.88
2022-09-09T04:41:27.674Z,68.96
2022-09-09T04:42:27.671Z,60.59
2022-09-09T04:43:27.665Z,58.81
2022-09-09T04:44:27.674Z,60.10
2022-09-09T04:45:27.760Z,67.68
2022-09-09T04:46:27.645Z,63.65
2022-09-09T04:47:27.657Z,66.06
2022-09-09T04:48:27.621Z,65.58
2022-09-09T04:49:27.645Z,63.97
2022-09-09T04:50:27.639Z,64.94
2022-09-09T04:51:27.723Z,65.74
2022-09-09T04:52:28.585Z,65.58
2022-09-09T04:53:27.598Z,60.10
2022-09-09T04:54:27.568Z,58.49
2022-09-09T04:55:27.567Z,60.42
2022-09-09T04:56:27.642Z,54.95
2022-09-09T04:57:27.569Z,58.97
2022-09-09T04:58:27.535Z,60.26
2022-09-09T04:59:27.534Z,59.78
2022-09-09T05:00:27.544Z,62.20
2022-09-09T05:01:27.589Z,65.10
2022-09-09T05:02:31.396Z,62.20
2022-09-09T05:03:28.514Z,56.72
2022-09-09T05:04:27.491Z,58.49
2022-09-09T05:05:27.521Z,59.30
2022-09-09T05:06:27.469Z,67.51
2022-09-09T05:07:48.562Z,67.84
2022-09-09T05:08:27.468Z,54.14
2022-09-09T05:09:27.451Z,54.62
2022-09-09T05:10:27.466Z,61.23
2022-09-09T05:11:27.437Z,64.45
2022-09-09T05:12:27.437Z,63.49
2022-09-09T05:13:27.414Z,60.75
2022-09-09T05:14:27.425Z,56.40
2022-09-09T05:15:27.438Z,53.33
2022-09-09T05:16:27.471Z,65.74
2022-09-09T05:17:27.382Z,61.87
2022-09-09T05:18:27.366Z,64.78
2022-09-09T05:19:27.370Z,55.27
2022-09-09T05:20:27.391Z,53.98
2022-09-09T05:21:27.355Z,63.65
2022-09-09T05:22:27.338Z,61.55
2022-09-09T05:23:27.328Z,63.97
2022-09-09T05:24:27.353Z,61.87
2022-09-09T05:25:27.345Z,59.46
2022-09-09T05:26:27.304Z,59.62
2022-09-09T05:27:27.299Z,59.62
2022-09-09T05:28:27.287Z,54.46
2022-09-09T05:29:27.275Z,61.07
2022-09-09T05:30:27.374Z,61.55
2022-09-09T05:31:27.429Z,60.75
2022-09-09T05:32:28.251Z,63.16
2022-09-09T05:33:27.253Z,63.33
2022-09-09T05:34:27.241Z,60.75
2022-09-09T05:35:27.271Z,65.26
2022-09-09T05:36:27.810Z,61.87
2022-09-09T05:37:27.203Z,62.84
2022-09-09T05:38:28.879Z,61.71
2022-09-09T05:39:28.194Z,63.49
2022-09-09T05:40:27.214Z,57.04
2022-09-09T05:41:28.176Z,60.59
2022-09-09T05:42:27.173Z,51.08
2022-09-09T05:43:27.158Z,63.97
2022-09-09T05:44:27.165Z,63.33
2022-09-09T05:45:27.175Z,64.61
2022-09-09T05:46:27.179Z,57.69
2022-09-09T05:47:27.129Z,61.87
2022-09-09T05:48:27.114Z,60.10
2022-09-09T05:49:27.109Z,49.31
2022-09-09T05:50:31.442Z,49.79
2022-09-09T05:51:28.114Z,66.39
2022-09-09T05:52:27.080Z,66.23
2022-09-09T05:53:27.079Z,61.39
2022-09-09T05:54:27.070Z,55.11
2022-09-09T05:55:27.059Z,56.40
2022-09-09T05:56:27.094Z,59.78
2022-09-09T05:57:27.047Z,58.65
2022-09-09T05:58:27.031Z,58.49
2022-09-09T05:59:27.029Z,54.14
2022-09-09T06:00:27.013Z,60.59
2022-09-09T06:01:27.054Z,63.97
2022-09-09T06:02:27.090Z,56.07
2022-09-09T06:03:26.990Z,59.14
2022-09-09T06:04:26.986Z,61.23
2022-09-09T06:05:26.974Z,65.26
2022-09-09T06:06:27.044Z,55.43
2022-09-09T06:07:26.961Z,50.92
2022-09-09T06:08:26.944Z,63.97
2022-09-09T06:09:27.941Z,63.00
2022-09-09T06:10:27.094Z,62.04
2022-09-09T06:11:26.956Z,58.81
2022-09-09T06:12:26.928Z,61.23
2022-09-09T06:13:26.914Z,59.62
2022-09-09T06:14:26.910Z,60.75
2022-09-09T06:15:26.896Z,66.71
2022-09-09T06:16:27.026Z,61.87
2022-09-09T06:17:26.895Z,62.04
2022-09-09T06:18:26.867Z,54.46
2022-09-09T06:19:26.866Z,62.68
2022-09-09T06:20:26.897Z,65.26
2022-09-09T06:21:26.875Z,53.66
2022-09-09T06:22:26.836Z,52.05
2022-09-09T06:23:26.828Z,57.04
2022-09-09T06:24:26.823Z,64.61
2022-09-09T06:25:26.825Z,66.87
2022-09-09T06:26:26.832Z,55.59
2022-09-09T06:27:26.792Z,51.88
2022-09-09T06:28:26.777Z,58.33
2022-09-09T06:29:26.773Z,62.68
2022-09-09T06:30:26.765Z,51.72
2022-09-09T06:31:29.867Z,51.24
2022-09-09T06:32:27.754Z,55.11
2022-09-09T06:33:26.745Z,59.94
2022-09-09T06:34:26.730Z,62.68
2022-09-09T06:35:26.723Z,55.43
2022-09-09T06:36:26.749Z,60.75
2022-09-09T06:37:26.706Z,55.75
2022-09-09T06:38:26.699Z,64.78
2022-09-09T06:39:26.702Z,53.33
2022-09-09T06:40:26.682Z,53.33
2022-09-09T06:41:26.723Z,55.59
2022-09-09T06:42:26.670Z,49.63
2022-09-09T06:43:26.663Z,49.95
2022-09-09T06:44:26.660Z,60.26
2022-09-09T06:45:26.641Z,57.20
2022-09-09T06:46:26.730Z,58.81
2022-09-09T06:47:26.626Z,56.88
2022-09-09T06:48:26.621Z,53.98
2022-09-09T06:49:26.608Z,54.30
2022-09-09T06:50:26.605Z,57.52
2022-09-09T06:51:26.643Z,49.31
2022-09-09T06:52:26.589Z,50.43
2022-09-09T06:53:26.578Z,64.61
2022-09-09T06:54:26.570Z,58.33
2022-09-09T06:55:26.577Z,54.46
2022-09-09T06:56:26.554Z,53.01
2022-09-09T06:57:36.769Z,57.69
2022-09-09T06:58:28.545Z,63.00
2022-09-09T06:59:26.543Z,53.98
2022-09-09T07:00:26.586Z,60.26
2022-09-09T07:01:26.520Z,58.81
2022-09-09T07:02:26.573Z,65.26
2022-09-09T07:03:26.512Z,58.17
2022-09-09T07:04:26.498Z,50.76
2022-09-09T07:05:26.484Z,60.75
2022-09-09T07:06:26.475Z,50.76
2022-09-09T07:07:26.493Z,49.15
2022-09-09T07:08:26.459Z,55.75
2022-09-09T07:09:26.449Z,59.14
2022-09-09T07:10:26.447Z,57.20
2022-09-09T07:11:26.436Z,64.13
2022-09-09T07:12:26.457Z,52.53
2022-09-09T07:13:26.415Z,51.40
2022-09-09T07:14:26.407Z,63.81
2022-09-09T07:15:26.399Z,52.53
2022-09-09T07:16:26.441Z,51.24
2022-09-09T07:17:26.413Z,52.85
2022-09-09T07:18:26.372Z,59.78
2022-09-09T07:19:26.369Z,62.20
2022-09-09T07:20:26.368Z,51.72
2022-09-09T07:21:26.358Z,53.50
2022-09-09T07:22:26.383Z,64.94
2022-09-09T07:23:26.344Z,57.20
2022-09-09T07:24:26.326Z,55.75
2022-09-09T07:25:26.320Z,55.27
2022-09-09T07:26:26.953Z,59.62
2022-09-09T07:27:26.335Z,52.53
2022-09-09T07:28:26.298Z,52.37
2022-09-09T07:29:26.289Z,60.10
2022-09-09T07:30:27.915Z,60.42
2022-09-09T07:31:27.337Z,53.50
2022-09-09T07:32:26.293Z,59.46
2022-09-09T07:33:26.263Z,54.46
2022-09-09T07:34:26.258Z,58.01
2022-09-09T07:35:26.236Z,62.52
2022-09-09T07:36:28.879Z,56.40
2022-09-09T07:37:27.251Z,55.43
2022-09-09T07:38:26.211Z,58.33
2022-09-09T07:39:26.201Z,55.27
2022-09-09T07:40:26.190Z,56.24
2022-09-09T07:41:26.187Z,54.46
2022-09-09T07:42:26.217Z,57.85
2022-09-09T07:43:26.172Z,59.78
2022-09-09T07:44:26.161Z,65.74
2022-09-09T07:45:26.154Z,60.91
2022-09-09T07:46:26.186Z,65.74
2022-09-09T07:47:26.163Z,60.26
2022-09-09T07:48:26.129Z,57.52
2022-09-09T07:49:30.926Z,55.59
2022-09-09T07:50:28.119Z,61.07
2022-09-09T07:51:26.101Z,63.49
2022-09-09T07:52:26.127Z,59.62
2022-09-09T07:53:26.090Z,52.37
2022-09-09T07:54:26.078Z,55.59
2022-09-09T07:55:26.068Z,57.52
2022-09-09T07:56:26.063Z,63.33
2022-09-09T07:57:26.083Z,61.87
2022-09-09T07:58:26.042Z,51.88
2022-09-09T07:59:26.041Z,52.37
2022-09-09T08:00:26.023Z,63.33
2022-09-09T08:01:26.041Z,62.68
2022-09-09T08:02:26.040Z,60.75
2022-09-09T08:03:26.034Z,53.33
2022-09-09T08:04:26.155Z,54.79
2022-09-09T08:05:25.988Z,55.43
2022-09-09T08:06:25.981Z,52.21
2022-09-09T08:07:26.012Z,52.53
2022-09-09T08:08:25.962Z,65.42
2022-09-09T08:09:25.987Z,62.36
2022-09-09T08:10:25.945Z,59.46
2022-09-09T08:11:25.936Z,60.10
2022-09-09T08:12:25.960Z,52.53
2022-09-09T08:13:25.918Z,52.05
2022-09-09T08:14:25.914Z,55.43
2022-09-09T08:15:25.900Z,63.81
2022-09-09T08:16:25.896Z,61.07
2022-09-09T08:17:25.913Z,58.17
2022-09-09T08:18:25.886Z,59.14
2022-09-09T08:19:25.869Z,57.52
2022-09-09T08:20:25.862Z,56.56
2022-09-09T08:21:25.859Z,55.27
2022-09-09T08:22:25.872Z,60.26
2022-09-09T08:23:25.835Z,63.00
2022-09-09T08:24:25.835Z,55.75
2022-09-09T08:25:25.818Z,48.50
2022-09-09T08:26:25.809Z,54.46
2022-09-09T08:27:25.834Z,54.79
2022-09-09T08:28:25.806Z,60.75
2022-09-09T08:29:25.793Z,61.07
2022-09-09T08:30:25.784Z,53.33
2022-09-09T08:31:25.793Z,49.47
2022-09-09T08:32:25.794Z,50.76
2022-09-09T08:33:25.764Z,65.10
2022-09-09T08:34:25.750Z,55.59
2022-09-09T08:35:25.733Z,50.43
2022-09-09T08:36:25.721Z,58.97
2022-09-09T08:37:25.757Z,61.07
2022-09-09T08:38:25.720Z,63.97
2022-09-09T08:39:25.707Z,60.42
2022-09-09T08:40:25.696Z,57.04
2022-09-09T08:41:25.693Z,50.76
2022-09-09T08:42:25.717Z,63.00
2022-09-09T08:43:25.676Z,56.56
2022-09-09T08:44:25.677Z,57.85
2022-09-09T08:45:25.669Z,54.62
2022-09-09T08:46:25.738Z,60.42
2022-09-09T08:47:25.667Z,64.45
2022-09-09T08:48:25.630Z,54.79
2022-09-09T08:49:25.623Z,52.85
2022-09-09T08:50:25.680Z,58.01
2022-09-09T08:51:25.605Z,66.23
2022-09-09T08:52:25.653Z,63.81
2022-09-09T08:53:25.597Z,51.56
2022-09-09T08:54:48.476Z,57.85
2022-09-09T08:55:27.579Z,62.04
2022-09-09T08:56:25.578Z,59.94
2022-09-09T08:57:25.594Z,62.20
2022-09-09T08:58:25.562Z,56.40
2022-09-09T08:59:25.555Z,57.20
2022-09-09T09:00:25.547Z,56.40
2022-09-09T09:01:25.579Z,58.01
2022-09-09T09:02:25.584Z,53.98
2022-09-09T09:03:25.519Z,55.27
2022-09-09T09:04:25.578Z,56.07
2022-09-09T09:05:25.521Z,64.13
2022-09-09T09:06:25.498Z,54.46
2022-09-09T09:07:26.095Z,50.92
2022-09-09T09:08:25.483Z,56.56
2022-09-09T09:09:25.477Z,65.26
2022-09-09T09:10:41.023Z,62.52
2022-09-09T09:11:27.473Z,56.56
2022-09-09T09:12:25.544Z,60.10
2022-09-09T09:13:25.447Z,55.75
2022-09-09T09:14:25.483Z,60.59
2022-09-09T09:15:27.314Z,64.78
2022-09-09T09:16:25.421Z,60.42
2022-09-09T09:17:25.447Z,60.91
2022-09-09T09:18:25.403Z,54.30
2022-09-09T09:19:25.403Z,57.04
2022-09-09T09:20:25.391Z,56.07
2022-09-09T09:21:25.396Z,55.27
2022-09-09T09:22:25.423Z,60.59
2022-09-09T09:23:25.375Z,58.97
2022-09-09T09:24:25.359Z,54.46
2022-09-09T09:25:25.357Z,53.98
2022-09-09T09:26:25.351Z,58.17
2022-09-09T09:27:25.370Z,52.69
2022-09-09T09:28:25.328Z,62.04
2022-09-09T09:29:25.320Z,62.20
2022-09-09T09:30:29.783Z,66.55
2022-09-09T09:31:26.318Z,62.20
2022-09-09T09:32:25.322Z,57.04
2022-09-09T09:33:25.286Z,63.65
2022-09-09T09:34:25.274Z,58.17
2022-09-09T09:35:25.274Z,65.74
2022-09-09T09:36:25.260Z,61.23
2022-09-09T09:37:25.282Z,59.78
2022-09-09T09:40:27.233Z,59.14
2022-09-09T09:41:25.233Z,57.20
2022-09-09T09:42:25.250Z,50.60
2022-09-09T09:43:25.206Z,62.04
2022-09-09T09:44:25.196Z,58.65
2022-09-09T09:45:25.191Z,55.75
2022-09-09T09:46:25.379Z,63.97
2022-09-09T09:47:25.201Z,60.42
2022-09-09T09:48:25.163Z,55.11
2022-09-09T09:49:25.163Z,53.01
2022-09-09T09:50:25.150Z,57.20
2022-09-09T09:51:25.140Z,65.74
2022-09-09T09:52:25.165Z,62.84
2022-09-09T09:53:25.123Z,56.72
2022-09-09T09:54:25.114Z,51.88
2022-09-09T09:55:25.112Z,56.07
2022-09-09T09:56:25.097Z,51.56
2022-09-09T09:57:25.127Z,66.55
2022-09-09T09:58:25.087Z,55.91
2022-09-09T09:59:38.621Z,60.26
2022-09-09T10:00:27.073Z,50.92
2022-09-09T10:01:25.123Z,54.95
2022-09-09T10:02:25.088Z,57.69
2022-09-09T10:03:25.049Z,63.00
2022-09-09T10:04:25.089Z,53.17
2022-09-09T10:05:27.185Z,56.88
2022-09-09T10:06:26.025Z,59.30
2022-09-09T10:07:25.045Z,63.97
2022-09-09T10:08:25.013Z,61.07
2022-09-09T10:09:24.999Z,58.01
2022-09-09T10:10:24.993Z,53.66
2022-09-09T10:11:24.989Z,59.62
2022-09-09T10:12:25.018Z,56.40
2022-09-09T10:13:24.978Z,55.27
2022-09-09T10:14:24.966Z,53.01
2022-09-09T10:15:25.089Z,54.95
2022-09-09T10:16:24.988Z,62.52
2022-09-09T10:17:24.958Z,65.90
2022-09-09T10:18:24.930Z,59.78
2022-09-09T10:19:24.925Z,57.20
2022-09-09T10:20:24.919Z,57.85
2022-09-09T10:21:24.898Z,57.69
2022-09-09T10:22:24.926Z,57.85
2022-09-09T10:23:24.885Z,59.62
2022-09-09T10:24:24.906Z,54.95
2022-09-09T10:25:24.871Z,56.56
2022-09-09T10:26:24.867Z,58.17
2022-09-09T10:27:24.911Z,62.52
2022-09-09T10:28:24.858Z,61.55
2022-09-09T10:29:24.845Z,59.94
2022-09-09T10:30:24.830Z,53.01
2022-09-09T10:31:24.906Z,59.46
2022-09-09T10:32:24.857Z,52.69
2022-09-09T10:33:24.817Z,64.45
2022-09-09T10:34:28.472Z,59.78
2022-09-09T10:35:25.807Z,53.98
2022-09-09T10:36:24.806Z,59.62
2022-09-09T10:37:24.785Z,62.20
2022-09-09T10:38:24.809Z,65.26
2022-09-09T10:39:24.783Z,63.33
2022-09-09T10:40:24.826Z,59.30
2022-09-09T10:41:24.757Z,59.94
2022-09-09T10:42:24.774Z,61.23
2022-09-09T10:43:24.779Z,64.78
2022-09-09T10:44:24.738Z,64.29
2022-09-09T10:45:24.731Z,58.01
2022-09-09T10:46:24.748Z,58.01
2022-09-09T10:47:27.943Z,52.37
2022-09-09T10:48:25.736Z,61.39
2022-09-09T10:49:24.700Z,59.94
2022-09-09T10:50:28.135Z,62.04
2022-09-09T10:51:26.728Z,61.23
2022-09-09T10:52:24.742Z,61.07
2022-09-09T10:53:24.699Z,57.85
2022-09-09T10:54:24.664Z,61.07
2022-09-09T10:55:29.216Z,63.97
2022-09-09T10:56:26.654Z,57.52
2022-09-09T10:57:24.642Z,58.33
2022-09-09T10:58:24.659Z,57.69
2022-09-09T10:59:24.628Z,57.52
2022-09-09T11:00:24.623Z,59.62
2022-09-09T11:01:24.655Z,57.69
2022-09-09T11:02:24.611Z,58.65
2022-09-09T11:03:24.623Z,61.23
2022-09-09T11:04:24.601Z,65.26
2022-09-09T11:05:24.581Z,56.72
2022-09-09T11:06:24.646Z,65.58
2022-09-09T11:07:24.630Z,63.33
2022-09-09T11:08:24.594Z,62.84
2022-09-09T11:09:24.554Z,57.69
2022-09-09T11:10:25.153Z,60.75
2022-09-09T11:11:24.547Z,62.84
2022-09-09T11:12:24.529Z,65.26
2022-09-09T11:13:24.543Z,64.94
2022-09-09T11:14:24.511Z,59.62
2022-09-09T11:15:24.510Z,57.36
2022-09-09T11:16:24.562Z,61.55
2022-09-09T11:17:24.483Z,64.29
2022-09-09T11:18:24.529Z,64.61
2022-09-09T11:19:24.473Z,66.87
2022-09-09T11:20:24.459Z,64.29
2022-09-09T11:21:24.455Z,59.62
2022-09-09T11:22:24.453Z,62.68
2022-09-09T11:23:24.474Z,58.33
2022-09-09T11:24:24.440Z,66.06
2022-09-09T11:25:24.462Z,64.78
2022-09-09T11:26:24.411Z,61.07
2022-09-09T11:27:24.425Z,58.81
2022-09-09T11:28:24.628Z,63.65
2022-09-09T11:29:24.392Z,60.75
2022-09-09T11:30:44.621Z,60.42
2022-09-09T11:31:26.391Z,60.26
2022-09-09T11:32:24.365Z,62.36
2022-09-09T11:33:24.394Z,59.30
2022-09-09T11:34:24.388Z,58.17
2022-09-09T11:35:24.345Z,60.10
2022-09-09T11:36:24.330Z,62.20
2022-09-09T11:37:24.325Z,65.26
2022-09-09T11:38:24.414Z,61.87
2022-09-09T11:39:24.308Z,62.84
2022-09-09T11:40:24.303Z,62.20
2022-09-09T11:41:24.299Z,63.65
2022-09-09T11:42:24.291Z,65.10
2022-09-09T11:43:24.320Z,62.68
2022-09-09T11:44:24.341Z,64.61
2022-09-09T11:45:24.266Z,65.10
2022-09-09T11:46:24.328Z,61.23
2022-09-09T11:47:24.251Z,59.46
2022-09-09T11:48:24.276Z,61.87
2022-09-09T11:49:24.222Z,62.20
2022-09-09T11:50:25.228Z,63.81
2022-09-09T11:51:24.299Z,64.78
2022-09-09T11:52:24.203Z,62.68
2022-09-09T11:53:24.264Z,61.23
2022-09-09T11:54:24.195Z,58.81
2022-09-09T11:55:24.197Z,62.68
2022-09-09T11:56:24.176Z,63.65
2022-09-09T11:57:24.171Z,64.45
2022-09-09T11:58:24.192Z,54.46
2022-09-09T11:59:24.153Z,56.56
2022-09-09T12:00:24.149Z,60.42
2022-09-09T12:01:24.136Z,64.78
2022-09-09T12:02:24.168Z,65.10
2022-09-09T12:03:24.164Z,64.13
2022-09-09T12:04:24.108Z,62.68
2022-09-09T12:05:24.179Z,57.20
2022-09-09T12:06:24.100Z,61.39
2022-09-09T12:07:24.092Z,64.45
2022-09-09T12:08:24.095Z,61.39
2022-09-09T12:09:24.101Z,64.45
2022-09-09T12:10:24.073Z,53.82
2022-09-09T12:11:24.063Z,61.23
2022-09-09T12:12:24.052Z,61.87
2022-09-09T12:13:24.061Z,64.45
2022-09-09T12:14:24.063Z,61.55
2022-09-09T12:15:24.028Z,64.78
2022-09-09T12:16:24.120Z,62.20
2022-09-09T12:17:24.018Z,63.81
2022-09-09T12:18:24.004Z,63.81
2022-09-09T12:19:26.476Z,63.33
2022-09-09T12:20:24.676Z,64.29
2022-09-09T12:21:23.994Z,60.59
2022-09-09T12:22:23.973Z,60.42
2022-09-09T12:23:23.964Z,54.95
2022-09-09T12:24:23.987Z,61.87
2022-09-09T12:25:23.944Z,62.84
2022-09-09T12:26:23.951Z,60.75
2022-09-09T12:27:23.936Z,59.30
2022-09-09T12:28:23.932Z,63.81
2022-09-09T12:29:23.948Z,65.26
2022-09-09T12:30:23.915Z,66.71
2022-09-09T12:31:23.907Z,62.52
2022-09-09T12:32:23.899Z,60.75
2022-09-09T12:33:23.897Z,62.84
2022-09-09T12:34:23.922Z,56.07
2022-09-09T12:35:23.873Z,59.78
2022-09-09T12:36:23.867Z,65.90
2022-09-09T12:37:23.865Z,61.71
2022-09-09T12:38:23.903Z,54.95
2022-09-09T12:39:23.858Z,62.84
2022-09-09T12:40:24.828Z,65.10
2022-09-09T12:41:23.830Z,56.56
2022-09-09T12:42:23.841Z,63.81
2022-09-09T12:43:23.837Z,61.07
2022-09-09T12:44:23.881Z,63.00
2022-09-09T12:45:23.794Z,58.33
2022-09-09T12:46:23.867Z,52.53
2022-09-09T12:47:28.190Z,62.84
2022-09-09T12:48:25.796Z,63.65
2022-09-09T12:49:23.768Z,60.75
2022-09-09T12:50:23.754Z,62.36
2022-09-09T12:51:23.750Z,64.61
2022-09-09T12:52:23.744Z,64.29
2022-09-09T12:53:26.348Z,59.14
2022-09-09T12:54:24.733Z,62.36
2022-09-09T12:55:23.719Z,64.29
2022-09-09T12:56:23.716Z,62.68
2022-09-09T12:57:23.715Z,52.53